• Join FlightAware (Why Join?)
  • Login
  • US Flag GB Flag 
07:51 EST


 

Airport Tracker/Info


-or-


 

Live Flight TrackerFlight Track Log ✈ DAL268 ✈ 18-May-2013 ✈ KATL - KJFK

Flight Track Log - Related Links

Times and Time Zones

All times are in EDT time to prevent confusion due to time zone crossing. See the DAL268 flight status page for this flight to view local times or setup timezone preferences in your user account.

Time Position Orientation Groundspeed Altitude Reporting Facility
EDT Latitude Longitude Course Direction KTS MPH feet Rate Location/Type
18:28 33.6333 -84.4833 64° Northeast 192 221 2,700  Level Atlanta TRACON
18:29 33.6000 -84.5500 239° Southwest 220 253 4,600 1,800 Climbing Atlanta TRACON
18:30 33.8204 -84.1876 73° East  Level Estimated
18:30 33.5500 -84.5833 209° Southwest 258 297 6,400  Level Atlanta TRACON
18:31 33.8815 -84.1072 101° East  Level Estimated
18:32 33.8157 -83.9923 125° Southeast  Level FlightAware Approximate
18:32 33.4533 -84.4272 127° Southeast 286 329 10,900  Level Atlanta Center
18:33 33.8947 -83.8902 101° East  Level Estimated
18:33 33.4558 -84.3078 89° East 322 371 13,200  Level Atlanta Center
18:34 33.9737 -83.7878 64° Northeast  Level Estimated
18:34 33.4894 -84.1958 70° East 343 395 15,200  Level Atlanta Center
18:35 33.5397 -84.0836 62° Northeast 356 410 16,100 1,200 Climbing Atlanta Center
18:36 33.5917 -83.9564 64° Northeast 397 457 17,600 1,560 Climbing Atlanta Center
18:37 33.6250 -83.8167 74° East 428 493 19,300 1,620 Climbing Atlanta Center
18:38 33.6539 -83.6719 76° East 442 509 20,900 1,500 Climbing Atlanta Center
18:39 33.7033 -83.5294 67° East 449 517 22,300 1,320 Climbing Atlanta Center
18:40 33.7592 -83.3917 64° Northeast 454 522 23,600 1,200 Climbing Atlanta Center
18:41 33.8147 -83.2486 65° Northeast 459 528 24,800 1,200 Climbing Atlanta Center
18:42 33.8681 -83.1206 63° Northeast 465 535 26,000 1,200 Climbing Atlanta Center
18:43 33.9233 -82.9800 65° Northeast 465 535 27,300 1,260 Climbing Atlanta Center
18:44 33.9825 -82.8364 64° Northeast 471 542 28,600 1,200 Climbing Atlanta Center
18:45 34.0372 -82.6950 65° Northeast 466 536 29,700 1,020 Climbing Atlanta Center
18:46 34.0961 -82.5539 63° Northeast 466 536 30,700 840 Climbing Atlanta Center
18:47 34.1547 -82.4019 65° Northeast 459 528 31,400 720 Climbing Atlanta Center
18:48 34.2114 -82.2578 65° Northeast 459 528 32,200 660 Climbing Atlanta Center
18:49 34.2697 -82.1158 64° Northeast 459 528 32,800 360 Climbing Atlanta Center
18:50 34.3364 -81.9836 59° Northeast 465 535 33,000 60 Climbing Atlanta Center
18:51 34.4050 -81.8458 59° Northeast 465 535 33,000  Level Atlanta Center
18:52 34.4753 -81.7031 59° Northeast 478 550 33,000  Level Atlanta Center
18:53 34.5436 -81.5650 59° Northeast 478 550 33,000  Level Atlanta Center
18:54 34.6117 -81.4242 60° Northeast 478 550 33,000  Level Atlanta Center
18:55 34.6717 -81.3036 59° Northeast 471 542 33,000  Level Atlanta Center
18:56 34.7394 -81.1622 60° Northeast 477 549 33,000  Level Atlanta Center
18:57 34.8131 -81.0131 59° Northeast 476 548 33,000  Level Atlanta Center
18:58 34.8806 -80.8764 59° Northeast 483 556 33,000  Level Atlanta Center
18:59 34.9497 -80.7344 59° Northeast 478 550 33,000  Level Atlanta Center
19:00 35.0169 -80.5947 60° Northeast 478 550 33,000  Level Atlanta Center
19:03 35.1714 -80.2697 60° Northeast 488 562 33,000  Level Washington Center
19:04 35.2397 -80.1264 60° Northeast 483 556 33,000  Level Washington Center
19:05 35.3094 -79.9878 58° Northeast 478 550 33,000  Level Washington Center
19:06 35.3753 -79.8461 60° Northeast 478 550 33,000  Level Washington Center
19:07 35.4428 -79.7069 59° Northeast 473 544 33,000  Level Washington Center
19:08 35.5100 -79.5650 60° Northeast 473 544 33,000  Level Washington Center
19:09 35.5775 -79.4203 60° Northeast 473 544 33,000  Level Washington Center
19:10 35.6447 -79.2725 61° Northeast 473 544 33,000  Level Washington Center
19:11 35.7156 -79.1325 58° Northeast 473 544 33,000  Level Washington Center
19:12 35.7822 -78.9897 60° Northeast 473 544 33,000  Level Washington Center
19:13 35.8511 -78.8414 60° Northeast 473 544 33,000  Level Washington Center
19:14 35.8886 -78.6867 73° East 473 544 33,000  Level Washington Center
19:15 35.9033 -78.5178 84° East 473 544 33,000  Level Washington Center
19:16 35.9197 -78.3517 83° East 484 557 33,000  Level Washington Center
19:17 35.9361 -78.1881 83° East 484 557 33,000  Level Washington Center
19:18 35.9500 -78.0217 84° East 479 551 33,000  Level Washington Center
19:19 35.9678 -77.8556 82° East 479 551 33,000  Level Washington Center
19:20 35.9919 -77.6792 80° East 479 551 33,000  Level Washington Center
19:21 36.0711 -77.5553 52° Northeast 474 545 33,000  Level Washington Center
19:22 36.1525 -77.4261 52° Northeast 474 545 33,000  Level Washington Center
19:23 36.2358 -77.2839 54° Northeast 469 540 33,000  Level Washington Center
19:24 36.3336 -77.1675 44° Northeast 474 545 33,000  Level Washington Center
19:25 36.4264 -77.0736 39° Northeast 468 539 33,000  Level Washington Center
19:26 36.5406 -76.9622 38° Northeast 468 539 33,000  Level Washington Center
19:27 36.6417 -76.8578 40° Northeast 474 545 33,000  Level Washington Center
19:28 36.7367 -76.7661 38° Northeast 474 545 33,000  Level Washington Center
19:29 36.8419 -76.6664 37° Northeast 474 545 33,000  Level Washington Center
19:30 36.9469 -76.5639 38° Northeast 474 545 33,000  Level Washington Center
19:31 37.0478 -76.4636 38° Northeast 469 540 33,000  Level Washington Center
19:32 37.1467 -76.3683 38° Northeast 464 534 33,000  Level Washington Center
19:33 37.2556 -76.2781 33° Northeast 464 534 33,000  Level Washington Center
19:34 37.3625 -76.1928 32° Northeast 458 527 33,000  Level Washington Center
19:35 37.4756 -76.1125 29° Northeast 458 527 33,000  Level Washington Center
19:36 37.5906 -76.0217 32° Northeast 447 514 33,000  Level Washington Center
19:37 37.6950 -75.9383 32° Northeast 447 514 33,000  Level Washington Center
19:38 37.7975 -75.8494 34° Northeast 447 514 33,000  Level Washington Center
19:39 37.9061 -75.7733 29° Northeast 447 514 33,000  Level Washington Center
19:40 38.0106 -75.6919 32° Northeast 442 509 33,000  Level Washington Center
19:41 38.1064 -75.6022 36° Northeast 437 503 33,000  Level Washington Center
19:42 38.2128 -75.5178 32° Northeast 437 503 33,000  Level Washington Center
19:43 38.3169 -75.4408 30° Northeast 432 497 33,000  Level Washington Center
19:44 38.4106 -75.3692 31° Northeast 432 497 33,000  Level Washington Center
19:45 38.5147 -75.2867 32° Northeast 427 491 33,000  Level Washington Center
19:46 38.6167 -75.2039 32° Northeast 427 491 33,000 -960 Level Washington Center
19:47 38.7183 -75.1208 33° Northeast 427 491 31,100 -2,520 Descending Washington Center
19:48 38.8286 -75.0347 31° Northeast 439 505 28,000 -2,040 Descending Washington Center
19:49 38.9364 -74.9406 34° Northeast 452 520 27,000 -660 Descending Washington Center
19:50 39.0506 -74.8458 33° Northeast 466 536 26,700 -1,260 Descending Washington Center
19:52 39.2689 -74.6217 38° Northeast 484 557 23,100 -1,860 Descending New York Center
19:53 39.3683 -74.5144 40° Northeast 466 536 21,000 -1,680 Descending New York Center
19:54 39.4633 -74.4117 40° Northeast 452 520 19,700 -1,260 Descending New York Center
19:55 39.5561 -74.3061 41° Northeast 440 506 18,500 -1,080 Descending New York Center
19:56 39.6575 -74.1953 40° Northeast 440 506 17,600 -1,320 Descending New York Center
19:57 39.7458 -74.0969 41° Northeast 422 486 15,900 -1,680 Descending New York Center
19:58 39.8317 -74.0011 41° Northeast 417 480 14,300 -1,500 Descending New York Center
19:59 39.9128 -73.9400 30° Northeast 388 447 13,000 -1,320 Descending New York Center
20:00 40.0019 -73.8764 29° Northeast 364 419 11,700 -1,440 Descending New York Center
20:01 40.0850 -73.8122 31° Northeast 322 371 10,200 -1,620 Descending New York Center
20:02 40.1386 -73.7522 41° Northeast 296 341 8,500 -2,220 Descending New York Center
20:02 40.1833 -73.7500 North 284 327 6,800 -2,520 Descending New York TRACON
20:03 40.2333 -73.8167 315° West 265 305 4,900 -1,440 Descending New York TRACON
20:04 40.2833 -73.8833 315° West 277 319 4,100 -1,020 Descending New York TRACON
20:05 40.3031 -73.9144 310° West 264 304 3,400 -720 Descending New York Center
20:06 40.3708 -73.9528 337° Northwest 248 285 3,000 -300 Descending New York Center
20:06 40.4000 -73.9500 North 226 260 3,000  Level New York TRACON
20:07 40.4500 -73.9667 346° North 202 232 3,000  Level New York TRACON
20:08 40.5167 -73.9667 360° North 203 234 3,000 -240 Level New York TRACON
20:09 40.5667 -73.9333 27° Northeast 200 230 2,500 -540 Descending New York TRACON